createdAt,value
2017-07-23T00:02:23.318Z,100
2017-07-23T00:12:38.366Z,100
2017-07-23T00:22:53.280Z,100
2017-07-23T00:33:07.840Z,100
2017-07-23T00:43:21.928Z,100
2017-07-23T00:53:36.674Z,100
2017-07-23T01:03:51.315Z,100
2017-07-23T01:14:05.742Z,100
2017-07-23T01:24:20.909Z,100
2017-07-23T01:34:35.550Z,100
2017-07-23T01:44:49.310Z,100
2017-07-23T01:55:03.863Z,100
2017-07-23T02:05:17.944Z,100
2017-07-23T02:15:32.139Z,100
2017-07-23T02:25:46.739Z,100
2017-07-23T02:36:01.967Z,100
2017-07-23T02:46:16.409Z,100
2017-07-23T02:56:31.464Z,100
2017-07-23T03:06:47.234Z,100
2017-07-23T03:17:02.105Z,100
2017-07-23T03:27:16.772Z,100
2017-07-23T03:37:32.475Z,100
2017-07-23T03:47:48.105Z,100
2017-07-23T03:58:01.900Z,100
2017-07-23T04:08:17.243Z,100
2017-07-23T04:18:31.070Z,100
2017-07-23T04:28:46.662Z,100
2017-07-23T04:39:02.165Z,100
2017-07-23T04:49:17.871Z,100
2017-07-23T04:59:32.018Z,100
2017-07-23T05:09:47.723Z,100
2017-07-23T05:20:03.496Z,100
2017-07-23T05:30:17.978Z,100
2017-07-23T05:40:32.050Z,100
2017-07-23T05:50:47.719Z,100
2017-07-23T06:01:02.501Z,100
2017-07-23T06:11:18.165Z,100
2017-07-23T06:21:32.127Z,100
2017-07-23T06:31:46.268Z,100
2017-07-23T06:42:00.207Z,100
2017-07-23T06:52:14.432Z,100
2017-07-23T07:02:29.483Z,100
2017-07-23T07:12:43.900Z,100
2017-07-23T07:22:58.096Z,100
2017-07-23T07:33:13.607Z,100
2017-07-23T07:43:28.883Z,100
2017-07-23T07:53:44.789Z,100
2017-07-23T08:04:00.172Z,100
2017-07-23T08:14:15.901Z,100
2017-07-23T08:24:31.265Z,100
2017-07-23T08:34:45.498Z,99.5
2017-07-23T08:45:00.967Z,99.2
2017-07-23T08:55:15.749Z,98
2017-07-23T09:05:31.093Z,98.2
2017-07-23T09:15:46.812Z,97.3
2017-07-23T09:26:00.763Z,96.1
2017-07-23T09:36:16.153Z,98.2
2017-07-23T09:46:30.030Z,98
2017-07-23T09:56:44.428Z,98.9
2017-07-23T10:06:59.789Z,95.5
2017-07-23T10:17:14.440Z,94.4
2017-07-23T10:27:29.234Z,94.2
2017-07-23T10:37:43.439Z,97.1
2017-07-23T10:47:58.831Z,100
2017-07-23T10:58:13.807Z,100
2017-07-23T11:08:27.836Z,100
2017-07-23T11:18:43.096Z,100
2017-07-23T11:28:57.398Z,100
2017-07-23T11:39:13.250Z,98
2017-07-23T11:49:28.779Z,93.3
2017-07-23T11:59:43.836Z,93.4
2017-07-23T12:09:58.046Z,92.7
2017-07-23T12:20:13.380Z,90.7
2017-07-23T12:30:28.823Z,87.6
2017-07-23T12:40:44.202Z,84.8
2017-07-23T12:50:59.044Z,84.2
2017-07-23T13:01:13.513Z,83
2017-07-23T13:11:28.524Z,84.5
2017-07-23T13:21:43.410Z,83.8
2017-07-23T13:31:58.651Z,81.8
2017-07-23T13:42:13.117Z,79.9
2017-07-23T13:52:28.760Z,80
2017-07-23T14:02:43.722Z,81.3
2017-07-23T14:12:57.997Z,83.1
2017-07-23T14:23:12.205Z,84.1
2017-07-23T14:33:27.565Z,84.3
2017-07-23T14:43:42.366Z,81.2
2017-07-23T14:53:56.699Z,80.7
2017-07-23T15:04:12.360Z,79.2
2017-07-23T15:14:28.193Z,78.6
2017-07-23T15:24:43.419Z,79.2
2017-07-23T15:34:59.053Z,80.7
2017-07-23T15:45:14.163Z,81.4
2017-07-23T15:55:29.364Z,80.8
2017-07-23T16:05:44.909Z,78.5
2017-07-23T16:16:00.098Z,81.3
2017-07-23T16:26:15.048Z,80.2
2017-07-23T16:36:29.556Z,80.7
2017-07-23T16:46:44.514Z,81.3
2017-07-23T16:56:59.230Z,82.2
2017-07-23T17:07:13.845Z,84.2
2017-07-23T17:17:28.918Z,84.6
2017-07-23T17:27:42.774Z,86.4
2017-07-23T17:37:58.667Z,87.6
2017-07-23T17:48:13.325Z,92.6
2017-07-23T17:58:28.151Z,98.7
2017-07-23T18:08:43.101Z,100
2017-07-23T18:18:58.752Z,100
2017-07-23T18:29:12.728Z,100
2017-07-23T18:39:26.810Z,100
2017-07-23T18:49:41.128Z,100
2017-07-23T18:59:55.431Z,100
2017-07-23T19:10:11.060Z,100
2017-07-23T19:20:25.997Z,100
2017-07-23T19:30:41.047Z,100
2017-07-23T19:40:56.179Z,100
2017-07-23T19:51:10.220Z,100
2017-07-23T20:01:25.529Z,100
2017-07-23T20:11:41.420Z,100
2017-07-23T20:21:56.405Z,100
2017-07-23T20:32:11.871Z,100
2017-07-23T20:42:26.654Z,100
2017-07-23T20:52:40.982Z,100
2017-07-23T21:02:55.232Z,100
2017-07-23T21:13:09.529Z,100
2017-07-23T21:23:24.457Z,100
2017-07-23T21:33:39.070Z,100
2017-07-23T21:43:53.427Z,100
2017-07-23T21:54:08.026Z,100
2017-07-23T22:04:22.875Z,100
2017-07-23T22:14:38.289Z,100
2017-07-23T22:24:53.906Z,100
2017-07-23T22:35:09.040Z,100
2017-07-23T22:45:23.242Z,100
2017-07-23T22:55:38.973Z,100
2017-07-23T23:05:54.279Z,100
2017-07-23T23:16:09.329Z,100
2017-07-23T23:26:23.117Z,100
2017-07-23T23:36:38.656Z,100
2017-07-23T23:46:53.925Z,100
2017-07-23T23:57:08.869Z,100
